Time;durP1;ratioP1;P1;durP2;ratioP2;P2;SDS_P1;SDS_P2;PMS_P1;PMS_P2;Temp;Humidity;BMP_temperature;BMP_pressure;BME280_temperature;BME280_humidity;BME280_pressure;Samples;Min_cycle;Max_cycle;Signal;HPM_P1;HPM_P2
2022/03/11 00:00:31;;;;;;;32.33;13.20;;;;;;;-2.10;51.02;102116.06;5036181;28;20128;-73
2022/03/11 00:02:56;;;;;;;30.55;13.80;;;;;;;-2.04;51.46;102123.06;5022197;28;20373;-75
2022/03/11 00:05:22;;;;;;;31.40;15.95;;;;;;;-2.06;52.06;102130.94;5021728;28;20100;-74
2022/03/11 00:07:47;;;;;;;26.60;13.73;;;;;;;-2.11;51.29;102133.16;5017017;28;20040;-76
2022/03/11 00:10:12;;;;;;;32.58;13.80;;;;;;;-2.12;51.48;102128.75;5016746;28;20034;-75
2022/03/11 00:12:38;;;;;;;33.35;14.90;;;;;;;-2.18;52.02;102125.38;5016673;28;20025;-76
2022/03/11 00:15:05;;;;;;;32.63;14.68;;;;;;;-2.15;51.89;102127.47;5035977;28;20508;-75
2022/03/11 00:17:30;;;;;;;35.05;14.32;;;;;;;-2.19;52.30;102132.13;5019995;28;20040;-76
2022/03/11 00:19:56;;;;;;;36.53;15.52;;;;;;;-2.21;52.31;102137.22;5055065;28;20048;-76
2022/03/11 00:22:21;;;;;;;38.72;17.70;;;;;;;-2.26;52.50;102121.50;5019536;28;20119;-76
2022/03/11 00:24:46;;;;;;;37.45;16.13;;;;;;;-2.22;52.45;102128.03;5038115;28;20065;-76
2022/03/11 00:27:12;;;;;;;34.45;15.85;;;;;;;-2.25;52.62;102116.75;5037593;28;20425;-77
2022/03/11 00:29:37;;;;;;;38.60;16.75;;;;;;;-2.23;52.32;102133.97;5036454;28;20025;-75
2022/03/11 00:32:03;;;;;;;37.70;16.17;;;;;;;-2.27;53.18;102125.47;5036326;28;20377;-74
2022/03/11 00:34:28;;;;;;;37.17;17.35;;;;;;;-2.29;52.54;102133.38;5019791;28;20035;-75
2022/03/11 00:36:53;;;;;;;39.65;17.90;;;;;;;-2.32;52.94;102110.94;5054230;28;20032;-76
2022/03/11 00:39:19;;;;;;;31.98;16.30;;;;;;;-2.35;52.81;102112.44;5053962;28;20021;-75
2022/03/11 00:41:44;;;;;;;35.15;17.42;;;;;;;-2.36;53.37;102116.38;5036029;28;20056;-75
2022/03/11 00:44:10;;;;;;;45.45;18.15;;;;;;;-2.37;53.51;102117.53;5053908;28;20025;-75
2022/03/11 00:46:35;;;;;;;39.53;18.17;;;;;;;-2.57;53.54;102090.56;5036084;28;20029;-76
2022/03/11 00:49:01;;;;;;;34.88;17.48;;;;;;;-2.37;53.35;102111.16;5036761;28;20079;-76
2022/03/11 00:51:26;;;;;;;39.10;18.58;;;;;;;-2.41;53.69;102111.03;5033886;28;20053;-76
2022/03/11 00:53:51;;;;;;;42.83;18.58;;;;;;;-2.39;54.15;102102.31;5034988;28;20463;-76
2022/03/11 00:56:17;;;;;;;35.55;16.45;;;;;;;-2.41;54.19;102118.56;5033043;28;20079;-75
2022/03/11 00:58:42;;;;;;;39.00;18.55;;;;;;;-2.48;53.90;102104.41;5032640;28;20044;-76
2022/03/11 01:01:07;;;;;;;41.65;18.50;;;;;;;-2.53;54.61;102104.63;5032556;28;20083;-75
2022/03/11 01:03:33;;;;;;;41.17;17.42;;;;;;;-2.50;54.34;102118.69;5031656;28;20112;-76
2022/03/11 01:05:58;;;;;;;40.65;18.95;;;;;;;-2.53;54.30;102104.63;5013735;28;20025;-76
2022/03/11 01:08:23;;;;;;;38.78;18.67;;;;;;;-2.55;54.27;102106.94;5030081;28;20044;-75
2022/03/11 01:10:49;;;;;;;41.42;18.15;;;;;;;-2.59;54.28;102097.63;5030585;28;20030;-76
2022/03/11 01:13:14;;;;;;;43.33;18.30;;;;;;;-2.61;54.57;102103.56;5030321;28;20040;-76
2022/03/11 01:15:39;;;;;;;39.00;20.17;;;;;;;-2.65;54.64;102103.44;5031669;28;20037;-76
2022/03/11 01:18:05;;;;;;;38.58;18.42;;;;;;;-2.70;55.03;102100.06;5014894;28;20095;-75
2022/03/11 01:20:30;;;;;;;37.05;18.42;;;;;;;-2.72;54.67;102102.38;5032763;28;20490;-75
2022/03/11 01:22:55;;;;;;;41.55;19.98;;;;;;;-2.71;54.81;102099.22;5032554;28;20470;-76
2022/03/11 01:25:21;;;;;;;39.22;18.90;;;;;;;-2.75;55.30;102095.50;5020470;28;20073;-76
2022/03/11 01:27:46;;;;;;;42.22;18.33;;;;;;;-2.74;55.49;102101.91;5038922;28;20467;-77
2022/03/11 01:30:13;;;;;;;43.67;19.77;;;;;;;-2.75;55.30;102098.28;5039962;28;20041;-77
2022/03/11 01:32:40;;;;;;;33.97;18.55;;;;;;;-2.77;55.25;102097.84;5040486;28;20026;-76
2022/03/11 01:35:07;;;;;;;37.20;18.88;;;;;;;-2.75;55.46;102098.28;5038792;28;20061;-76
2022/03/11 01:37:32;;;;;;;39.30;18.70;;;;;;;-2.80;55.82;102087.38;5036967;28;20036;-76
2022/03/11 01:39:57;;;;;;;42.17;19.20;;;;;;;-2.85;55.54;102084.78;5037051;28;20025;-76
2022/03/11 01:42:23;;;;;;;34.13;17.63;;;;;;;-2.86;55.11;102085.94;5037606;28;20022;-76
2022/03/11 01:44:49;;;;;;;36.92;18.77;;;;;;;-2.86;55.88;102083.16;5039478;28;20386;-76
2022/03/11 01:47:14;;;;;;;35.78;17.45;;;;;;;-2.89;56.13;102083.84;5020940;28;20025;-77
2022/03/11 01:49:39;;;;;;;38.08;17.67;;;;;;;-2.95;56.07;102085.22;5035267;28;20443;-76
2022/03/11 01:52:05;;;;;;;35.65;17.13;;;;;;;-2.97;55.74;102081.16;5053590;28;20151;-76
2022/03/11 01:54:31;;;;;;;37.90;17.83;;;;;;;-2.97;55.80;102081.16;5035143;28;20032;-76
2022/03/11 01:56:57;;;;;;;36.13;17.45;;;;;;;-3.01;55.94;102078.25;5018889;28;20059;-75
2022/03/11 01:59:22;;;;;;;38.45;18.40;;;;;;;-3.06;55.73;102070.91;5035250;28;20417;-76
2022/03/11 02:01:47;;;;;;;30.60;16.40;;;;;;;-3.05;55.94;102077.28;5035269;28;20029;-75
2022/03/11 02:04:13;;;;;;;39.85;17.15;;;;;;;-3.11;56.04;102076.69;5018654;28;20083;-76
2022/03/11 02:06:38;;;;;;;36.22;16.80;;;;;;;-3.14;56.07;102080.16;5052937;28;20035;-75
2022/03/11 02:09:04;;;;;;;36.45;16.27;;;;;;;-3.13;56.11;102079.03;5053697;28;20473;-75
2022/03/11 02:11:30;;;;;;;36.50;17.95;;;;;;;-3.16;55.97;102090.84;5018739;28;20033;-75
2022/03/11 02:14:00;;;;;;;37.65;16.88;;;;;;;-3.20;55.97;102086.28;5035037;28;20458;-75
2022/03/11 02:16:30;;;;;;;39.22;17.80;;;;;;;-3.23;56.27;102095.34;5035593;28;20065;-75
2022/03/11 02:18:56;;;;;;;38.73;19.27;;;;;;;-3.24;56.18;102088.13;5035127;28;20025;-75
2022/03/11 02:21:23;;;;;;;40.17;18.15;;;;;;;-3.30;56.62;102084.75;5053139;28;20279;-74
2022/03/11 02:23:50;;;;;;;41.25;17.98;;;;;;;-3.32;56.55;102083.47;5018594;28;20025;-76
2022/03/11 02:26:17;;;;;;;37.17;17.75;;;;;;;-3.35;56.26;102086.91;5034949;28;20032;-76
2022/03/11 02:28:43;;;;;;;38.58;17.70;;;;;;;-3.45;56.43;102077.00;5034929;28;20450;-75
2022/03/11 02:31:09;;;;;;;34.95;17.38;;;;;;;-3.49;57.09;102081.63;5035104;28;20025;-75
2022/03/11 02:33:34;;;;;;;41.70;17.13;;;;;;;-3.54;56.93;102068.72;5054092;28;20451;-75
2022/03/11 02:36:00;;;;;;;37.08;17.73;;;;;;;-3.55;57.05;102072.66;5048148;28;20055;-75
2022/03/11 02:38:26;;;;;;;38.17;17.48;;;;;;;-3.59;57.62;102079.25;5050014;28;20025;-76
2022/03/11 02:40:52;;;;;;;39.60;18.65;;;;;;;-3.63;58.00;102065.19;5031903;28;20025;-76
2022/03/11 02:43:17;;;;;;;41.85;18.42;;;;;;;-3.54;57.96;102071.50;5048214;28;20060;-74
2022/03/11 02:45:43;;;;;;;42.78;19.05;;;;;;;-3.55;57.37;102075.44;5048816;28;20028;-75
2022/03/11 02:48:08;;;;;;;41.08;18.05;;;;;;;-3.56;58.07;102073.03;5065989;28;20087;-74
2022/03/11 02:50:34;;;;;;;37.15;16.77;;;;;;;-3.54;57.70;102070.69;5045988;28;20506;-75
2022/03/11 02:53:00;;;;;;;34.90;16.67;;;;;;;-3.56;57.34;102073.84;5045920;28;20052;-74
2022/03/11 02:55:25;;;;;;;40.78;17.38;;;;;;;-3.52;57.85;102076.75;5045595;28;20104;-75
2022/03/11 02:57:50;;;;;;;37.58;18.25;;;;;;;-3.55;57.79;102064.31;5046951;28;20088;-75
2022/03/11 03:00:16;;;;;;;38.05;17.15;;;;;;;-3.57;57.39;102065.81;5045058;28;20025;-74
2022/03/11 03:02:41;;;;;;;36.30;16.33;;;;;;;-3.58;57.65;102070.56;5045654;28;20029;-76
2022/03/11 03:05:07;;;;;;;37.60;17.00;;;;;;;-3.60;57.81;102063.72;5045999;28;20032;-76
2022/03/11 03:07:33;;;;;;;39.95;17.60;;;;;;;-3.60;57.75;102070.06;5042148;28;20075;-75
2022/03/11 03:09:58;;;;;;;36.35;15.65;;;;;;;-3.60;57.83;102063.72;5036633;28;20098;-76
2022/03/11 03:12:24;;;;;;;31.55;16.50;;;;;;;-3.63;57.32;102067.97;5035111;28;20033;-76
2022/03/11 03:14:50;;;;;;;35.47;16.35;;;;;;;-3.66;57.46;102068.69;5036777;28;20029;-76
2022/03/11 03:17:15;;;;;;;32.35;16.17;;;;;;;-3.70;57.67;102067.69;5018118;28;20052;-76
2022/03/11 03:19:41;;;;;;;38.45;16.80;;;;;;;-3.70;58.08;102072.47;5034782;28;20112;-76
2022/03/11 03:22:06;;;;;;;33.08;16.02;;;;;;;-3.73;58.64;102059.22;5036035;28;20537;-75
2022/03/11 03:24:31;;;;;;;33.20;16.15;;;;;;;-3.69;58.33;102071.31;5034384;28;20030;-75
2022/03/11 03:26:57;;;;;;;37.83;15.40;;;;;;;-3.75;57.95;102070.69;5035586;28;20028;-76
2022/03/11 03:29:23;;;;;;;33.78;16.27;;;;;;;-3.69;58.47;102080.47;5035916;28;20056;-76
2022/03/11 03:31:48;;;;;;;32.67;16.02;;;;;;;-3.68;58.15;102075.72;5041664;28;20053;-76
2022/03/11 03:34:14;;;;;;;32.70;15.75;;;;;;;-3.64;58.20;102076.66;5042484;28;20032;-75
2022/03/11 03:36:39;;;;;;;32.40;14.80;;;;;;;-3.75;57.51;102062.34;5037690;28;20032;-75
2022/03/11 03:39:04;;;;;;;37.47;17.85;;;;;;;-3.76;57.50;102066.28;5037865;28;20025;-76
2022/03/11 03:41:29;;;;;;;42.53;17.52;;;;;;;-3.67;57.52;102072.59;5042365;28;20025;-75
2022/03/11 03:43:55;;;;;;;39.80;17.77;;;;;;;-3.67;58.05;102074.56;5039435;28;20033;-75
2022/03/11 03:46:20;;;;;;;43.28;19.27;;;;;;;-3.75;58.22;102062.34;5039791;28;20386;-77
2022/03/11 03:48:46;;;;;;;36.55;15.93;;;;;;;-3.68;57.02;102067.38;5022884;28;20477;-75
2022/03/11 03:51:11;;;;;;;37.28;14.98;;;;;;;-3.66;58.44;102065.88;5053488;28;20053;-77
2022/03/11 03:53:36;;;;;;;38.92;16.17;;;;;;;-3.69;57.75;102069.34;5041015;28;20037;-77
2022/03/11 03:56:02;;;;;;;34.08;15.57;;;;;;;-3.67;57.24;102069.81;5026261;28;20078;-76
2022/03/11 03:58:27;;;;;;;37.25;17.30;;;;;;;-3.66;58.09;102079.00;5043019;28;20029;-75
2022/03/11 04:00:52;;;;;;;36.80;16.65;;;;;;;-3.65;57.54;102069.50;5041771;28;20029;-76
2022/03/11 04:03:18;;;;;;;33.95;16.17;;;;;;;-3.71;57.92;102063.31;5040265;28;20028;-76
2022/03/11 04:05:43;;;;;;;35.25;15.40;;;;;;;-3.75;58.20;102079.03;5040612;28;20027;-75
2022/03/11 04:08:09;;;;;;;38.40;16.77;;;;;;;-3.82;57.87;102070.41;5024080;28;20458;-75
2022/03/11 04:10:34;;;;;;;36.30;16.20;;;;;;;-3.85;58.03;102064.72;5040663;28;20029;-75
2022/03/11 04:12:59;;;;;;;37.83;16.50;;;;;;;-3.97;58.18;102060.69;5021612;28;20031;-75
2022/03/11 04:15:25;;;;;;;36.65;16.38;;;;;;;-3.99;58.29;102071.34;5037504;28;20461;-75
2022/03/11 04:17:50;;;;;;;39.22;16.38;;;;;;;-3.98;58.60;102075.75;5037385;28;20041;-75
2022/03/11 04:20:17;;;;;;;34.15;16.85;;;;;;;-3.98;57.72;102077.72;5038984;28;20553;-75
2022/03/11 04:22:43;;;;;;;38.67;15.90;;;;;;;-3.91;58.22;102080.81;5038824;28;20032;-75
2022/03/11 04:25:11;;;;;;;34.38;17.45;;;;;;;-3.95;57.85;102079.84;5022219;28;20039;-75
2022/03/11 04:27:36;;;;;;;36.45;16.88;;;;;;;-4.08;58.80;102059.44;5020470;28;20359;-73
2022/03/11 04:30:03;;;;;;;34.67;16.58;;;;;;;-3.98;58.58;102078.53;5050993;28;20024;-74
2022/03/11 04:32:29;;;;;;;32.05;16.38;;;;;;;-4.07;59.31;102074.19;5056796;28;20077;-74
2022/03/11 04:34:55;;;;;;;34.35;16.00;;;;;;;-4.10;59.02;102086.81;5041752;28;20474;-75
2022/03/11 04:37:21;;;;;;;36.83;17.00;;;;;;;-4.20;59.16;102089.97;5037130;28;20048;-74
2022/03/11 04:39:47;;;;;;;36.67;16.40;;;;;;;-4.20;59.18;102084.41;5036344;28;20095;-75
2022/03/11 04:42:14;;;;;;;34.40;15.57;;;;;;;-4.22;60.14;102078.34;5019778;28;20025;-75
2022/03/11 04:44:40;;;;;;;51.17;15.68;;;;;;;-4.24;59.85;102074.28;5054225;28;20033;-74
2022/03/11 04:47:06;;;;;;;38.92;15.52;;;;;;;-4.24;60.14;102077.06;5055976;28;20075;-74
2022/03/11 04:49:31;;;;;;;45.65;16.95;;;;;;;-4.27;59.63;102072.97;5054517;28;20028;-76
2022/03/11 04:51:57;;;;;;;26.67;14.60;;;;;;;-4.29;59.74;102069.72;4999856;28;20406;-76
2022/03/11 04:54:24;;;;;;;36.00;15.45;;;;;;;-4.31;59.74;102072.03;4999948;28;20036;-75
2022/03/11 04:56:49;;;;;;;40.75;15.18;;;;;;;-4.30;59.56;102078.41;5034369;28;20033;-75
2022/03/11 04:59:15;;;;;;;36.83;18.15;;;;;;;-4.34;59.40;102078.25;5031142;28;20589;-75
2022/03/11 05:01:41;;;;;;;35.58;15.95;;;;;;;-4.33;59.95;102079.88;5032994;28;20048;-74
2022/03/11 05:04:06;;;;;;;56.40;16.15;;;;;;;-4.37;59.94;102078.91;5033483;28;20086;-76
2022/03/11 05:06:33;;;;;;;34.97;15.70;;;;;;;-4.38;60.55;102086.44;5034397;28;20033;-75
2022/03/11 05:09:00;;;;;;;41.00;17.58;;;;;;;-4.32;60.57;102089.03;5017042;28;20442;-74
2022/03/11 05:11:25;;;;;;;35.10;16.60;;;;;;;-4.34;59.69;102094.13;5032323;28;20033;-75
2022/03/11 05:13:52;;;;;;;35.17;16.25;;;;;;;-4.32;59.59;102089.84;5033889;28;20091;-75
2022/03/11 05:16:17;;;;;;;38.72;16.88;;;;;;;-4.30;59.80;102100.66;5033959;28;20451;-74
2022/03/11 05:18:43;;;;;;;35.22;17.10;;;;;;;-4.33;59.94;102098.53;5033598;28;20057;-75
2022/03/11 05:21:09;;;;;;;29.35;15.27;;;;;;;-4.31;60.07;102096.25;5032537;28;20107;-74
2022/03/11 05:23:35;;;;;;;40.83;16.92;;;;;;;-4.37;60.38;102098.38;5012529;28;20470;-75
2022/03/11 05:26:02;;;;;;;34.45;16.05;;;;;;;-4.36;60.32;102095.28;5012424;28;20398;-75
2022/03/11 05:28:29;;;;;;;34.55;16.20;;;;;;;-4.33;59.38;102095.75;5013760;28;20050;-76
2022/03/11 05:30:54;;;;;;;31.80;14.15;;;;;;;-4.27;59.71;102094.41;5029399;28;20080;-76
2022/03/11 05:33:22;;;;;;;39.35;15.98;;;;;;;-4.31;59.40;102097.06;5015562;28;20025;-75
2022/03/11 05:35:47;;;;;;;52.20;17.02;;;;;;;-4.22;59.10;102088.66;5015864;28;20125;-74
2022/03/11 05:38:14;;;;;;;38.42;15.52;;;;;;;-4.20;58.58;102098.31;5015829;28;20092;-74
2022/03/11 05:40:41;;;;;;;41.15;15.57;;;;;;;-4.17;58.67;102100.41;4998067;28;20041;-74
2022/03/11 05:43:10;;;;;;;37.53;15.88;;;;;;;-4.13;59.45;102106.13;5029486;28;20514;-75
2022/03/11 05:45:38;;;;;;;30.05;15.18;;;;;;;-4.11;58.08;102099.09;5013645;28;20033;-74
2022/03/11 05:48:05;;;;;;;40.17;17.80;;;;;;;-4.06;58.42;102106.41;5013717;28;20113;-76
2022/03/11 05:50:31;;;;;;;39.03;16.23;;;;;;;-3.99;58.40;102103.91;5020477;28;20483;-75
2022/03/11 05:52:57;;;;;;;48.05;15.88;;;;;;;-3.90;58.28;102115.81;5033436;28;20076;-74
2022/03/11 05:55:22;;;;;;;37.95;16.25;;;;;;;-3.83;58.30;102113.31;4999418;28;20029;-75
2022/03/11 05:57:50;;;;;;;31.00;14.30;;;;;;;-3.72;57.17;102108.16;5020452;28;20025;-75
2022/03/11 06:00:15;;;;;;;41.13;16.15;;;;;;;-3.54;57.40;102106.88;5053604;28;20401;-76
2022/03/11 06:02:43;;;;;;;29.38;14.52;;;;;;;-3.08;55.33;102106.69;5053458;28;20033;-78
2022/03/11 06:05:10;;;;;;;43.95;15.68;;;;;;;-2.81;55.05;102110.03;5035412;28;20075;-78
2022/03/11 06:07:36;;;;;;;34.78;14.60;;;;;;;-2.88;54.90;102107.78;5054011;28;20017;-78
2022/03/11 06:10:03;;;;;;;26.50;14.45;;;;;;;-2.90;54.77;102109.28;5036995;28;20025;-77
2022/03/11 06:12:28;;;;;;;31.88;16.23;;;;;;;-2.91;55.04;102113.25;5040435;28;20343;-77
2022/03/11 06:14:55;;;;;;;39.85;15.00;;;;;;;-2.63;54.22;102115.06;5041751;28;20028;-78
2022/03/11 06:17:20;;;;;;;26.98;12.50;;;;;;;-2.39;53.26;102113.47;5043848;28;20025;-79
2022/03/11 06:19:46;;;;;;;41.47;14.40;;;;;;;-2.43;53.09;102112.56;5064539;28;20571;-80
2022/03/11 06:22:13;;;;;;;28.75;14.27;;;;;;;-2.45;52.54;102114.84;5043168;28;20075;-79
2022/03/11 06:24:39;;;;;;;30.23;14.32;;;;;;;-2.40;53.00;102123.00;5069371;28;20386;-78
2022/03/11 06:27:05;;;;;;;33.95;15.55;;;;;;;-1.93;51.98;102118.63;5072598;28;20029;-78
2022/03/11 06:29:31;;;;;;;38.70;14.02;;;;;;;-1.65;51.26;102121.50;5052470;28;20040;-78
2022/03/11 06:31:56;;;;;;;46.35;15.63;;;;;;;-1.20;50.32;102103.72;5024553;28;20087;-78
2022/03/11 06:34:22;;;;;;;37.20;13.68;;;;;;;1.53;45.78;102108.28;5025305;28;20025;-79
2022/03/11 06:36:47;;;;;;;32.33;14.07;;;;;;;4.31;39.04;102101.81;5025812;28;20052;-76
2022/03/11 06:39:13;;;;;;;37.35;14.20;;;;;;;5.79;34.87;102083.84;5037818;28;20111;-77
2022/03/11 06:41:40;;;;;;;34.35;13.25;;;;;;;6.67;31.60;102093.50;5037933;28;20039;-78
2022/03/11 06:44:06;;;;;;;35.30;13.20;;;;;;;6.90;31.15;102097.50;5004859;28;20031;-76
2022/03/11 06:46:31;;;;;;;41.63;15.00;;;;;;;7.36;31.13;102082.28;5055588;28;20037;-79
2022/03/11 06:48:57;;;;;;;39.15;15.02;;;;;;;6.13;31.38;102092.75;5038544;28;20029;-81
2022/03/11 06:51:23;;;;;;;31.60;14.30;;;;;;;6.32;32.40;102092.34;5017361;28;20128;-78
2022/03/11 06:53:48;;;;;;;45.83;14.63;;;;;;;7.40;29.68;102087.97;5034756;28;20091;-79
2022/03/11 06:56:13;;;;;;;31.23;13.45;;;;;;;9.08;28.06;102086.84;5018835;28;20025;-79
2022/03/11 06:58:39;;;;;;;39.80;13.98;;;;;;;9.97;26.30;102080.69;5036252;28;20021;-79
2022/03/11 07:01:04;;;;;;;33.40;14.75;;;;;;;10.67;24.92;102075.81;5033383;28;20068;-79
2022/03/11 07:03:30;;;;;;;25.38;12.55;;;;;;;11.71;23.48;102072.34;5034483;28;20017;-78
2022/03/11 07:05:56;;;;;;;31.40;13.45;;;;;;;13.30;22.23;102073.84;5017405;28;20345;-79
2022/03/11 07:08:21;;;;;;;39.10;14.50;;;;;;;15.05;20.34;102072.41;5034181;28;20098;-79
2022/03/11 07:10:47;;;;;;;29.02;14.98;;;;;;;16.62;19.24;102064.84;5032602;28;20026;-79
2022/03/11 07:13:12;;;;;;;32.08;13.77;;;;;;;18.79;17.97;102064.56;5035639;28;20028;-75
2022/03/11 07:15:38;;;;;;;32.38;13.70;;;;;;;18.76;15.43;102077.88;5035592;28;20040;-77
2022/03/11 07:18:03;;;;;;;27.38;13.57;;;;;;;18.43;15.67;102068.50;5014726;28;20029;-76
2022/03/11 07:20:29;;;;;;;26.08;13.73;;;;;;;18.31;16.00;102076.09;5031682;28;20022;-80
2022/03/11 07:22:54;;;;;;;26.08;13.75;;;;;;;19.53;15.51;102068.38;5015100;28;20053;-78
2022/03/11 07:25:20;;;;;;;36.53;14.40;;;;;;;21.34;14.07;102064.88;5016537;28;20034;-80
2022/03/11 07:27:45;;;;;;;49.05;16.40;;;;;;;22.24;13.72;102060.63;5017021;28;20029;-81
2022/03/11 07:30:11;;;;;;;29.25;13.57;;;;;;;22.28;13.31;102055.34;5016677;28;20069;-80
2022/03/11 07:32:41;;;;;;;25.58;12.95;;;;;;;22.49;13.07;102053.09;5015784;28;20029;-82
2022/03/11 07:35:08;;;;;;;30.05;13.63;;;;;;;22.86;12.47;102064.63;5031948;28;20022;-83
2022/03/11 07:37:37;;;;;;;33.25;13.45;;;;;;;22.49;11.99;102058.91;5016941;28;20090;-82
2022/03/11 07:40:05;;;;;;;37.80;14.38;;;;;;;22.34;12.17;102065.69;5018039;28;20463;-82
2022/03/11 07:42:31;;;;;;;35.53;13.90;;;;;;;22.67;11.55;102065.06;5015282;28;20025;-78
2022/03/11 07:44:57;;;;;;;34.38;14.98;;;;;;;22.22;11.41;102075.63;5028810;28;20092;-80
2022/03/11 07:47:23;;;;;;;66.43;15.82;;;;;;;20.55;12.06;102084.72;5033846;28;20121;-75
2022/03/11 07:49:51;;;;;;;38.17;13.40;;;;;;;17.75;13.85;102091.28;5036800;28;20028;-77
2022/03/11 07:52:17;;;;;;;34.72;14.10;;;;;;;16.80;14.92;102087.88;5055327;28;20029;-81
2022/03/11 07:54:44;;;;;;;45.97;12.85;;;;;;;16.19;15.03;102088.84;5055441;28;20025;-78
2022/03/11 07:57:11;;;;;;;35.28;12.73;;;;;;;14.50;16.57;102089.19;5041091;28;20127;-77
2022/03/11 07:59:40;;;;;;;39.35;13.63;;;;;;;12.37;18.07;102105.44;5033535;28;20032;-79
2022/03/11 08:02:07;;;;;;;34.45;12.93;;;;;;;11.03;20.09;102100.75;5025956;28;20021;-79
2022/03/11 08:04:32;;;;;;;54.85;14.30;;;;;;;10.91;20.49;102095.69;5055607;28;20024;-81
2022/03/11 08:07:06;;;;;;;44.55;14.43;;;;;;;11.88;19.62;102108.28;5055141;28;20116;-78
2022/03/11 08:09:35;;;;;;;32.83;12.30;;;;;;;11.95;19.44;102102.38;5054713;28;20465;-80
2022/03/11 08:12:03;;;;;;;29.52;12.77;;;;;;;12.08;18.65;102091.88;5036839;28;20116;-79
2022/03/11 08:14:37;;;;;;;24.58;10.23;;;;;;;11.77;19.15;102090.59;5019563;28;20086;-74
2022/03/11 08:17:03;;;;;;;37.92;11.63;;;;;;;10.87;19.21;102109.22;5049021;28;20207;-73
2022/03/11 08:19:29;;;;;;;45.95;13.48;;;;;;;9.05;21.33;102091.34;5053474;28;20100;-76
2022/03/11 08:22:00;;;;;;;40.80;12.10;;;;;;;7.69;23.27;102081.69;5053079;28;20103;-74
2022/03/11 08:24:25;;;;;;;24.80;11.93;;;;;;;8.11;24.13;102108.91;5034773;28;20040;-75
2022/03/11 08:26:51;;;;;;;31.25;13.15;;;;;;;8.76;23.20;102100.63;5053263;28;20024;-74
2022/03/11 08:29:19;;;;;;;24.70;11.98;;;;;;;9.73;21.79;102091.22;5055423;28;20032;-77
2022/03/11 08:31:48;;;;;;;26.52;11.52;;;;;;;9.79;21.92;102086.66;5037164;28;20036;-81
2022/03/11 08:34:13;;;;;;;23.85;11.23;;;;;;;9.86;21.94;102100.00;5019368;28;20470;-79
2022/03/11 08:36:39;;;;;;;30.88;11.07;;;;;;;9.57;21.75;102079.66;5036758;28;20025;-82
2022/03/11 08:39:06;;;;;;;30.92;12.70;;;;;;;9.67;22.01;102089.31;5036710;28;20588;-79
2022/03/11 08:41:32;;;;;;;31.60;11.65;;;;;;;9.77;21.51;102103.34;5036198;28;20086;-80
2022/03/11 08:44:00;;;;;;;25.73;11.43;;;;;;;9.51;21.29;102098.47;5033284;28;20036;-75
2022/03/11 08:46:29;;;;;;;40.65;12.20;;;;;;;9.15;21.45;102091.63;5038240;28;20025;-78
2022/03/11 08:48:57;;;;;;;38.17;11.32;;;;;;;8.77;21.61;102097.38;5036742;28;20028;-79
2022/03/11 08:51:23;;;;;;;33.28;11.40;;;;;;;8.48;22.62;102099.72;5029946;28;20061;-79
2022/03/11 08:53:49;;;;;;;31.80;11.90;;;;;;;8.35;22.56;102092.13;5034366;28;20475;-77
2022/03/11 08:56:21;;;;;;;28.00;10.40;;;;;;;8.03;22.92;102087.50;5039109;28;20032;-75
2022/03/11 08:58:48;;;;;;;33.78;11.15;;;;;;;7.80;24.13;102081.59;5034860;28;20470;-79
2022/03/11 09:01:17;;;;;;;34.70;12.70;;;;;;;7.66;24.06;102076.03;5034107;28;20031;-78
2022/03/11 09:03:42;;;;;;;26.77;10.73;;;;;;;7.74;24.22;102078.41;5016992;28;20112;-78
2022/03/11 09:06:09;;;;;;;27.88;11.65;;;;;;;7.77;24.67;102071.91;5032930;28;20048;-79
2022/03/11 09:08:34;;;;;;;32.75;11.40;;;;;;;7.95;24.40;102071.75;5032612;28;20047;-80
2022/03/11 09:11:02;;;;;;;29.60;11.90;;;;;;;8.15;24.09;102083.34;5033729;28;20017;-79
2022/03/11 09:13:28;;;;;;;29.55;12.02;;;;;;;7.95;24.48;102070.94;5033364;28;20025;-78
2022/03/11 09:15:56;;;;;;;25.90;10.52;;;;;;;7.92;24.42;102071.78;5032746;28;20025;-77
2022/03/11 09:18:22;;;;;;;39.05;11.48;;;;;;;7.58;23.97;102088.66;5016047;28;20470;-74
2022/03/11 09:20:49;;;;;;;21.20;9.75;;;;;;;7.14;25.36;102066.63;5015856;28;20067;-74
2022/03/11 09:23:16;;;;;;;25.35;9.75;;;;;;;6.71;25.07;102080.94;5033857;28;20502;-78
2022/03/11 09:25:41;;;;;;;21.35;9.38;;;;;;;6.35;25.13;102071.75;5016840;28;20033;-79
2022/03/11 09:28:07;;;;;;;20.45;9.27;;;;;;;6.17;25.34;102096.41;5032488;28;20029;-75
2022/03/11 09:30:34;;;;;;;30.10;10.48;;;;;;;5.93;25.94;102080.25;5032267;28;20110;-77
2022/03/11 09:33:00;;;;;;;22.13;9.80;;;;;;;5.86;26.11;102066.91;5034114;28;20056;-74
2022/03/11 09:35:26;;;;;;;24.75;11.10;;;;;;;5.94;26.18;102079.84;5032570;28;20037;-77
2022/03/11 09:37:51;;;;;;;28.73;10.98;;;;;;;5.99;26.46;102079.44;5033990;28;20034;-80
2022/03/11 09:40:17;;;;;;;25.67;10.10;;;;;;;6.02;25.33;102086.28;5033428;28;20063;-77
2022/03/11 09:42:51;;;;;;;22.05;9.50;;;;;;;5.96;25.78;102088.75;5033411;28;20059;-79
2022/03/11 09:45:26;;;;;;;42.33;11.57;;;;;;;5.81;26.03;102084.25;5031700;28;20414;-72
2022/03/11 09:47:53;;;;;;;36.53;9.95;;;;;;;5.98;26.01;102079.84;5033159;28;20475;-73
2022/03/11 09:50:20;;;;;;;24.23;9.15;;;;;;;5.95;25.08;102089.94;5015241;28;20041;-83
2022/03/11 09:52:49;;;;;;;37.70;10.55;;;;;;;6.05;25.43;102085.50;5015385;28;20386;-79
2022/03/11 09:55:14;;;;;;;24.23;9.95;;;;;;;6.30;25.36;102082.66;5032555;28;20037;-82
2022/03/11 09:57:41;;;;;;;26.95;10.27;;;;;;;6.48;25.47;102072.91;5001443;28;20055;-82
2022/03/11 10:00:10;;;;;;;24.48;10.35;;;;;;;6.67;25.62;102085.81;5035614;28;20021;-78
2022/03/11 10:02:36;;;;;;;43.60;10.68;;;;;;;6.59;25.21;102064.41;5034097;28;20022;-78
2022/03/11 10:05:03;;;;;;;26.10;9.95;;;;;;;6.53;24.66;102048.25;5033932;28;20036;-77
2022/03/11 10:07:31;;;;;;;48.03;11.45;;;;;;;6.52;25.18;102078.56;5015744;28;20044;-81
2022/03/11 10:10:11;;;;;;;26.17;10.38;;;;;;;6.49;24.95;102068.88;5001093;28;20044;-78
2022/03/11 10:12:43;;;;;;;27.52;10.82;;;;;;;6.35;24.26;102065.28;5032501;28;20058;-80
2022/03/11 10:15:08;;;;;;;38.78;11.30;;;;;;;6.29;24.76;102062.03;5032727;28;20029;-77
2022/03/11 10:17:39;;;;;;;25.98;10.30;;;;;;;6.34;25.40;102064.47;5015807;28;20035;-77
2022/03/11 10:20:11;;;;;;;21.80;10.32;;;;;;;6.27;24.70;102063.66;5034756;28;20485;-80
2022/03/11 10:22:40;;;;;;;;;;;;;;;6.20;24.94;102066.50;5018368;28;20036;-78
2022/03/11 10:25:13;;;;;;;29.50;10.07;;;;;;;6.12;25.13;102071.34;5032976;28;19932;-82
2022/03/11 10:28:01;;;;;;;27.58;8.43;;;;;;;6.16;24.62;102066.50;5022050;28;20057;-78
2022/03/11 10:30:29;;;;;;;18.83;8.52;;;;;;;6.13;24.69;102069.31;5017820;28;20030;-82
2022/03/11 10:32:58;;;;;;;25.08;8.68;;;;;;;6.23;25.58;102086.28;5022617;28;20483;-80
2022/03/11 10:35:34;;;;;;;28.90;9.38;;;;;;;6.22;25.19;102073.34;5014094;28;20034;-80
2022/03/11 10:38:07;;;;;;;14.82;8.48;;;;;;;6.23;25.38;102069.31;5029835;28;20034;-79
2022/03/11 10:40:39;;;;;;;23.80;9.15;;;;;;;6.24;24.44;102058.81;5006425;28;20033;-77
2022/03/11 10:43:17;;;;;;;22.23;9.80;;;;;;;6.28;24.73;102073.75;5014773;28;20037;-78
2022/03/11 10:45:54;;;;;;;33.95;11.65;;;;;;;6.14;24.43;102065.28;5020749;28;20108;-77
2022/03/11 10:48:45;;;;;;;25.35;10.05;;;;;;;6.19;24.54;102071.34;5025211;28;20026;-78
2022/03/11 10:51:12;;;;;;;34.53;10.05;;;;;;;6.23;24.88;102054.38;5014868;28;20052;-77
2022/03/11 10:53:39;;;;;;;29.83;10.75;;;;;;;6.33;24.63;102045.03;4980281;28;20029;-78
2022/03/11 10:56:13;;;;;;;23.25;8.48;;;;;;;6.44;24.29;102055.16;4995561;28;20038;-78
2022/03/11 10:58:41;;;;;;;32.10;9.60;;;;;;;6.26;24.80;102043.06;4998171;28;20052;-77
2022/03/11 11:01:08;;;;;;;16.95;8.48;;;;;;;6.23;23.85;102046.69;5016751;28;20025;-77
2022/03/11 11:03:35;;;;;;;20.33;9.43;;;;;;;6.14;24.59;102037.81;5015813;28;20463;-78
2022/03/11 11:06:02;;;;;;;16.02;8.68;;;;;;;6.37;24.62;102037.34;4999674;28;20391;-77
2022/03/11 11:08:27;;;;;;;25.48;9.18;;;;;;;6.26;24.42;102028.09;4999422;28;20111;-73